createdAt,value
2022-10-17T00:00:29.946Z,100.00
2022-10-17T00:03:01.402Z,100.00
2022-10-17T00:05:33.262Z,100.00
2022-10-17T00:08:04.835Z,100.00
2022-10-17T00:10:36.627Z,100.00
2022-10-17T00:13:08.102Z,100.00
2022-10-17T00:15:39.857Z,100.00
2022-10-17T00:18:11.318Z,100.00
2022-10-17T00:20:43.173Z,100.00
2022-10-17T00:23:14.650Z,100.00
2022-10-17T00:25:46.474Z,100.00
2022-10-17T00:28:18.252Z,100.00
2022-10-17T00:30:49.698Z,100.00
2022-10-17T00:33:21.476Z,100.00
2022-10-17T00:35:52.968Z,100.00
2022-10-17T00:38:24.712Z,100.00
2022-10-17T00:43:32.829Z,100.00
2022-10-17T00:46:04.340Z,100.00
2022-10-17T00:48:36.137Z,100.00
2022-10-17T00:51:07.598Z,100.00
2022-10-17T00:53:39.428Z,100.00
2022-10-17T00:56:10.913Z,100.00
2022-10-17T00:58:42.693Z,100.00
2022-10-17T01:01:14.187Z,100.00
2022-10-17T01:03:46.086Z,100.00
2022-10-17T01:06:17.603Z,100.00
2022-10-17T01:08:49.389Z,100.00
2022-10-17T01:11:20.911Z,100.00
2022-10-17T01:13:52.679Z,100.00
2022-10-17T01:16:24.149Z,100.00
2022-10-17T01:18:56.019Z,100.00
2022-10-17T01:21:27.524Z,100.00
2022-10-17T01:23:59.312Z,100.00
2022-10-17T01:26:30.793Z,100.00
2022-10-17T01:29:02.523Z,100.00
2022-10-17T01:31:33.998Z,100.00
2022-10-17T01:34:05.835Z,100.00
2022-10-17T01:36:37.361Z,100.00
2022-10-17T01:39:08.842Z,100.00
2022-10-17T01:41:40.407Z,100.00
2022-10-17T01:44:12.653Z,100.00
2022-10-17T01:46:44.248Z,100.00
2022-10-17T01:49:16.305Z,100.00
2022-10-17T01:51:47.789Z,100.00
2022-10-17T01:54:19.622Z,100.00
2022-10-17T01:56:51.131Z,100.00
2022-10-17T01:59:23.050Z,100.00
2022-10-17T02:01:54.535Z,100.00
2022-10-17T02:04:26.492Z,100.00
2022-10-17T02:06:58.038Z,100.00
2022-10-17T02:09:29.947Z,100.00
2022-10-17T02:12:01.444Z,100.00
2022-10-17T02:14:34.330Z,100.00
2022-10-17T02:17:05.832Z,100.00
2022-10-17T02:19:37.825Z,100.00
2022-10-17T02:22:09.315Z,100.00
2022-10-17T02:24:41.151Z,100.00
2022-10-17T02:27:12.700Z,100.00
2022-10-17T02:29:44.541Z,100.00
2022-10-17T02:32:17.359Z,100.00
2022-10-17T02:34:49.518Z,100.00
2022-10-17T02:37:20.991Z,100.00
2022-10-17T02:39:52.843Z,100.00
2022-10-17T02:42:24.347Z,100.00
2022-10-17T02:44:56.287Z,100.00
2022-10-17T02:47:27.786Z,100.00
2022-10-17T02:49:59.662Z,100.00
2022-10-17T02:52:31.473Z,100.00
2022-10-17T02:55:03.578Z,100.00
2022-10-17T02:57:35.088Z,100.00
2022-10-17T03:00:06.928Z,100.00
2022-10-17T03:02:38.468Z,100.00
2022-10-17T03:05:10.019Z,100.00
2022-10-17T03:07:41.583Z,100.00
2022-10-17T03:10:13.374Z,100.00
2022-10-17T03:12:44.874Z,100.00
2022-10-17T03:15:16.719Z,100.00
2022-10-17T03:17:48.250Z,100.00
2022-10-17T03:20:19.768Z,100.00
2022-10-17T03:22:51.588Z,100.00
2022-10-17T03:25:23.095Z,100.00
2022-10-17T03:27:54.968Z,100.00
2022-10-17T03:30:26.443Z,100.00
2022-10-17T03:32:58.429Z,100.00
2022-10-17T03:35:29.984Z,100.00
2022-10-17T03:38:02.166Z,100.00
2022-10-17T03:40:33.684Z,100.00
2022-10-17T03:43:05.510Z,100.00
2022-10-17T03:45:36.985Z,100.00
2022-10-17T03:48:09.079Z,100.00
2022-10-17T03:50:40.601Z,100.00
2022-10-17T03:53:12.503Z,100.00
2022-10-17T03:55:44.230Z,100.00
2022-10-17T03:58:16.132Z,100.00
2022-10-17T04:00:48.058Z,100.00
2022-10-17T04:03:19.878Z,100.00
2022-10-17T04:05:51.367Z,100.00
2022-10-17T04:08:23.252Z,100.00
2022-10-17T04:10:54.748Z,100.00
2022-10-17T04:13:26.649Z,100.00
2022-10-17T04:15:58.300Z,100.00
2022-10-17T04:18:30.160Z,100.00
2022-10-17T04:21:01.659Z,100.00
2022-10-17T04:23:33.665Z,100.00
2022-10-17T04:26:05.168Z,100.00
2022-10-17T04:28:36.989Z,100.00
2022-10-17T04:31:08.520Z,100.00
2022-10-17T04:33:40.099Z,100.00
2022-10-17T04:36:11.606Z,100.00
2022-10-17T04:38:43.442Z,100.00
2022-10-17T04:41:14.992Z,100.00
2022-10-17T04:43:50.130Z,100.00
2022-10-17T04:46:22.866Z,100.00
2022-10-17T04:48:54.909Z,100.00
2022-10-17T04:51:26.732Z,100.00
2022-10-17T04:53:58.805Z,100.00
2022-10-17T04:56:30.321Z,100.00
2022-10-17T04:59:02.374Z,100.00
2022-10-17T05:01:33.882Z,100.00
2022-10-17T05:04:05.703Z,100.00
2022-10-17T05:06:37.734Z,100.00
2022-10-17T05:09:09.529Z,100.00
2022-10-17T05:11:41.021Z,100.00
2022-10-17T05:14:12.972Z,100.00
2022-10-17T05:16:44.465Z,100.00
2022-10-17T05:19:16.311Z,100.00
2022-10-17T05:21:47.855Z,100.00
2022-10-17T05:24:19.601Z,100.00
2022-10-17T05:26:52.013Z,100.00
2022-10-17T05:29:23.959Z,100.00
2022-10-17T05:31:55.591Z,100.00
2022-10-17T05:34:27.523Z,100.00
2022-10-17T05:36:59.414Z,100.00
2022-10-17T05:39:30.911Z,100.00
2022-10-17T05:42:02.739Z,100.00
2022-10-17T05:44:34.253Z,100.00
2022-10-17T05:47:06.145Z,100.00
2022-10-17T05:49:46.334Z,100.00
2022-10-17T05:52:21.803Z,100.00
2022-10-17T05:54:53.336Z,100.00
2022-10-17T05:57:25.240Z,100.00
2022-10-17T05:59:56.744Z,100.00
2022-10-17T06:02:28.950Z,100.00
2022-10-17T06:05:00.734Z,100.00
2022-10-17T06:07:32.675Z,100.00
2022-10-17T06:10:04.191Z,100.00
2022-10-17T06:12:36.149Z,100.00
2022-10-17T06:15:07.667Z,100.00
2022-10-17T06:17:39.559Z,100.00
2022-10-17T06:20:11.141Z,100.00
2022-10-17T06:22:43.463Z,100.00
2022-10-17T06:25:15.026Z,100.00
2022-10-17T06:27:46.884Z,100.00
2022-10-17T06:30:18.410Z,100.00
2022-10-17T06:32:50.266Z,100.00
2022-10-17T06:35:22.233Z,100.00
2022-10-17T06:37:54.046Z,100.00
2022-10-17T06:40:25.583Z,100.00
2022-10-17T06:42:57.880Z,100.00
2022-10-17T06:45:29.380Z,100.00
2022-10-17T06:48:01.183Z,100.00
2022-10-17T06:50:32.685Z,100.00
2022-10-17T06:53:04.517Z,100.00
2022-10-17T06:55:36.012Z,100.00
2022-10-17T06:58:07.807Z,100.00
2022-10-17T07:00:39.393Z,100.00
2022-10-17T07:03:11.363Z,100.00
2022-10-17T07:05:42.846Z,100.00
2022-10-17T07:08:14.675Z,100.00
2022-10-17T07:10:46.167Z,100.00
2022-10-17T07:13:17.942Z,100.00
2022-10-17T07:15:49.474Z,100.00
2022-10-17T07:18:21.410Z,100.00
2022-10-17T07:20:52.919Z,100.00
2022-10-17T07:23:24.756Z,100.00
2022-10-17T07:25:56.260Z,100.00
2022-10-17T07:28:28.687Z,100.00
2022-10-17T07:31:00.214Z,100.00
2022-10-17T07:33:32.287Z,100.00
2022-10-17T07:36:03.807Z,100.00
2022-10-17T07:38:35.626Z,100.00
2022-10-17T07:41:07.134Z,100.00
2022-10-17T07:43:39.250Z,100.00
2022-10-17T07:46:11.542Z,100.00
2022-10-17T07:48:43.608Z,100.00
2022-10-17T07:51:15.158Z,100.00
2022-10-17T07:53:48.834Z,100.00
2022-10-17T07:56:24.550Z,100.00
2022-10-17T08:01:28.879Z,100.00
2022-10-17T08:04:00.673Z,100.00
2022-10-17T08:06:32.208Z,99.33
2022-10-17T08:09:04.017Z,99.13
2022-10-17T08:11:36.574Z,99.30
2022-10-17T08:14:08.414Z,97.81
2022-10-17T08:16:40.330Z,96.01
2022-10-17T08:19:12.961Z,94.37
2022-10-17T08:21:47.123Z,92.28
2022-10-17T08:24:18.622Z,90.36
2022-10-17T08:26:51.897Z,91.33
2022-10-17T08:29:23.496Z,91.31
2022-10-17T08:32:00.918Z,90.42
2022-10-17T08:34:33.392Z,88.46
2022-10-17T08:37:05.288Z,86.58
2022-10-17T08:39:36.816Z,85.31
2022-10-17T08:42:08.639Z,83.89
2022-10-17T08:44:40.130Z,83.62
2022-10-17T08:47:11.951Z,82.72
2022-10-17T08:49:46.816Z,82.23
2022-10-17T08:52:18.673Z,81.14
2022-10-17T08:54:50.229Z,80.01
2022-10-17T08:57:22.219Z,81.27
2022-10-17T08:59:53.791Z,79.28
2022-10-17T09:02:26.579Z,77.48
2022-10-17T09:04:58.954Z,77.47
2022-10-17T09:07:31.051Z,76.58
2022-10-17T09:10:02.934Z,75.30
2022-10-17T09:12:34.703Z,74.08
2022-10-17T09:15:06.223Z,74.33
2022-10-17T09:17:38.222Z,75.31
2022-10-17T09:20:10.225Z,74.78
2022-10-17T09:22:42.254Z,74.04
2022-10-17T09:25:13.826Z,74.93
2022-10-17T09:27:45.901Z,72.94
2022-10-17T09:30:40.117Z,71.39
2022-10-17T09:33:10.852Z,71.53
2022-10-17T09:35:46.742Z,70.63
2022-10-17T09:38:18.551Z,69.77
2022-10-17T09:40:52.653Z,69.58
2022-10-17T09:43:28.665Z,69.50
2022-10-17T09:46:00.274Z,69.51
2022-10-17T09:48:32.239Z,68.44
2022-10-17T09:51:14.835Z,68.31
2022-10-17T09:53:46.876Z,66.33
2022-10-17T09:56:18.427Z,66.06
2022-10-17T09:58:50.283Z,64.36
2022-10-17T10:01:24.082Z,63.67
2022-10-17T10:03:56.109Z,64.10
2022-10-17T10:06:28.019Z,63.87
2022-10-17T10:08:59.546Z,64.38
2022-10-17T10:11:31.392Z,63.88
2022-10-17T10:14:02.897Z,63.28
2022-10-17T10:16:34.710Z,63.18
2022-10-17T10:19:08.418Z,62.73
2022-10-17T10:21:43.998Z,61.30
2022-10-17T10:24:16.674Z,62.10
2022-10-17T10:26:48.740Z,62.61
2022-10-17T10:29:20.242Z,63.54
2022-10-17T10:31:52.274Z,62.65
2022-10-17T10:34:23.887Z,62.17
2022-10-17T10:36:56.048Z,62.24
2022-10-17T10:39:27.585Z,61.82
2022-10-17T10:41:59.500Z,60.60
2022-10-17T10:44:31.020Z,59.77
2022-10-17T10:47:02.815Z,59.30
2022-10-17T10:49:34.339Z,58.50
2022-10-17T10:52:06.208Z,58.47
2022-10-17T10:57:14.491Z,58.14
2022-10-17T11:02:17.834Z,58.10
2022-10-17T11:04:49.334Z,57.51
2022-10-17T11:07:23.037Z,57.22
2022-10-17T11:09:54.570Z,56.92
2022-10-17T11:12:26.459Z,56.93
2022-10-17T11:14:57.981Z,56.77
2022-10-17T11:17:30.270Z,57.21
2022-10-17T11:20:02.097Z,57.26
2022-10-17T11:22:34.460Z,57.11
2022-10-17T11:25:06.136Z,57.52
2022-10-17T11:27:37.905Z,56.74
2022-10-17T11:30:09.402Z,55.96
2022-10-17T11:32:41.295Z,57.00
2022-10-17T11:35:12.827Z,56.62
2022-10-17T11:37:48.301Z,56.14
2022-10-17T11:40:23.545Z,57.07
2022-10-17T11:42:56.518Z,56.63
2022-10-17T11:45:28.539Z,55.57
2022-10-17T11:48:00.026Z,56.00
2022-10-17T11:53:25.009Z,55.31
2022-10-17T11:55:56.944Z,54.82
2022-10-17T11:58:30.174Z,55.77
2022-10-17T12:01:01.887Z,56.34
2022-10-17T12:03:33.470Z,55.79
2022-10-17T12:06:05.523Z,55.16
2022-10-17T12:08:38.400Z,55.07
2022-10-17T12:11:10.358Z,54.81
2022-10-17T12:13:41.933Z,54.88
2022-10-17T12:16:17.424Z,55.28
2022-10-17T12:18:49.117Z,55.58
2022-10-17T12:21:21.071Z,55.75
2022-10-17T12:23:52.695Z,55.60
2022-10-17T12:26:24.550Z,56.19
2022-10-17T12:28:56.087Z,55.63
2022-10-17T12:31:33.538Z,56.27
2022-10-17T12:34:05.340Z,56.38
2022-10-17T12:36:37.563Z,55.94
2022-10-17T12:39:14.723Z,55.99
2022-10-17T12:41:46.936Z,55.98
2022-10-17T12:44:21.363Z,55.58
2022-10-17T12:46:52.912Z,56.35
2022-10-17T12:49:24.457Z,56.49
2022-10-17T12:51:56.252Z,56.35
2022-10-17T12:54:27.733Z,56.52
2022-10-17T12:56:59.730Z,56.58
2022-10-17T12:59:31.221Z,56.20
2022-10-17T13:02:03.315Z,57.01
2022-10-17T13:04:34.958Z,56.63
2022-10-17T13:07:06.775Z,57.04
2022-10-17T13:09:38.269Z,57.25
2022-10-17T13:12:10.880Z,57.26
2022-10-17T13:14:42.632Z,57.02
2022-10-17T13:17:14.503Z,56.78
2022-10-17T13:19:46.187Z,57.01
2022-10-17T13:22:17.741Z,56.89
2022-10-17T13:24:49.235Z,56.85
2022-10-17T13:27:21.196Z,57.02
2022-10-17T13:29:53.189Z,55.81
2022-10-17T13:32:24.710Z,56.51
2022-10-17T13:34:56.549Z,56.59
2022-10-17T13:37:28.048Z,56.70
2022-10-17T13:40:07.008Z,55.80
2022-10-17T13:42:49.273Z,56.41
2022-10-17T13:45:21.253Z,56.83
2022-10-17T13:47:52.747Z,56.41
2022-10-17T13:50:43.129Z,55.51
2022-10-17T13:53:16.004Z,55.69
2022-10-17T13:55:48.171Z,56.13
2022-10-17T13:58:19.682Z,56.41
2022-10-17T14:00:53.035Z,56.44
2022-10-17T14:03:31.809Z,55.54
2022-10-17T14:06:10.177Z,54.91
2022-10-17T14:08:41.723Z,54.77
2022-10-17T14:11:13.630Z,54.66
2022-10-17T14:13:46.186Z,54.16
2022-10-17T14:16:18.214Z,54.02
2022-10-17T14:18:49.837Z,53.99
2022-10-17T14:24:13.275Z,54.61
2022-10-17T14:26:44.809Z,54.17
2022-10-17T14:29:16.312Z,53.91
2022-10-17T14:31:50.817Z,53.56
2022-10-17T14:34:22.637Z,53.86
2022-10-17T14:36:54.660Z,55.14
2022-10-17T14:39:26.209Z,56.04
2022-10-17T14:42:02.057Z,56.45
2022-10-17T14:44:35.692Z,57.63
2022-10-17T14:47:38.196Z,58.37
2022-10-17T14:49:59.003Z,59.70
2022-10-17T14:52:31.467Z,60.18
2022-10-17T14:55:03.204Z,60.69
2022-10-17T14:57:35.040Z,61.24
2022-10-17T15:00:06.526Z,61.62
2022-10-17T15:02:38.580Z,61.82
2022-10-17T15:05:13.224Z,61.81
2022-10-17T15:07:45.198Z,62.36
2022-10-17T15:10:16.683Z,63.13
2022-10-17T15:12:57.475Z,63.57
2022-10-17T15:15:31.464Z,64.00
2022-10-17T15:18:03.388Z,64.74
2022-10-17T15:20:34.973Z,65.33
2022-10-17T15:23:06.785Z,66.16
2022-10-17T15:25:38.278Z,66.42
2022-10-17T15:28:11.232Z,66.49
2022-10-17T15:30:42.732Z,66.67
2022-10-17T15:33:14.549Z,66.82
2022-10-17T15:35:46.184Z,66.94
2022-10-17T15:38:17.998Z,67.24
2022-10-17T15:40:51.916Z,67.23
2022-10-17T15:43:23.769Z,67.09
2022-10-17T15:45:55.432Z,67.21
2022-10-17T15:48:27.495Z,66.78
2022-10-17T15:50:59.306Z,67.21
2022-10-17T15:53:30.805Z,67.59
2022-10-17T15:56:02.670Z,67.87
2022-10-17T15:58:34.218Z,68.16
2022-10-17T16:01:06.717Z,69.61
2022-10-17T16:03:38.308Z,69.70
2022-10-17T16:06:13.419Z,70.10
2022-10-17T16:08:45.754Z,70.54
2022-10-17T16:11:17.570Z,71.45
2022-10-17T16:13:49.069Z,71.36
2022-10-17T16:16:22.459Z,72.04
2022-10-17T16:18:54.042Z,72.71
2022-10-17T16:21:25.862Z,73.04
2022-10-17T16:23:57.407Z,73.98
2022-10-17T16:26:29.367Z,74.53
2022-10-17T16:29:02.944Z,75.14
2022-10-17T16:31:35.036Z,75.39
2022-10-17T16:34:06.850Z,76.30
2022-10-17T16:36:38.686Z,76.86
2022-10-17T16:39:10.239Z,77.32
2022-10-17T16:41:42.091Z,77.61
2022-10-17T16:44:14.576Z,78.17
2022-10-17T16:46:46.419Z,78.60
2022-10-17T16:49:18.281Z,79.10
2022-10-17T16:51:50.126Z,79.96
2022-10-17T16:54:21.642Z,80.38
2022-10-17T16:56:53.219Z,80.73
2022-10-17T16:59:25.172Z,81.14
2022-10-17T17:01:57.164Z,81.63
2022-10-17T17:04:28.699Z,81.73
2022-10-17T17:07:00.686Z,82.36
2022-10-17T17:09:32.203Z,83.09
2022-10-17T17:12:04.037Z,83.86
2022-10-17T17:14:35.513Z,84.69
2022-10-17T17:17:12.241Z,85.45
2022-10-17T17:19:51.190Z,86.52
2022-10-17T17:22:22.762Z,87.06
2022-10-17T17:24:54.346Z,86.79
2022-10-17T17:27:25.866Z,87.40
2022-10-17T17:29:57.356Z,88.54
2022-10-17T17:32:29.329Z,87.57
2022-10-17T17:35:00.895Z,87.57
2022-10-17T17:37:32.956Z,86.03
2022-10-17T17:40:06.093Z,86.48
2022-10-17T17:42:37.928Z,87.17
2022-10-17T17:45:09.467Z,87.39
2022-10-17T17:47:41.342Z,87.53
2022-10-17T17:50:13.175Z,87.88
2022-10-17T17:52:46.929Z,88.33
2022-10-17T17:55:18.418Z,88.74
2022-10-17T17:57:50.017Z,89.20
2022-10-17T18:00:21.542Z,89.77
2022-10-17T18:02:53.545Z,90.21
2022-10-17T18:05:25.571Z,90.98
2022-10-17T18:07:57.130Z,92.59
2022-10-17T18:10:29.098Z,93.56
2022-10-17T18:13:00.616Z,94.99
2022-10-17T18:15:32.158Z,95.48
2022-10-17T18:18:03.662Z,95.92
2022-10-17T18:20:36.410Z,96.31
2022-10-17T18:23:08.005Z,95.68
2022-10-17T18:25:39.935Z,94.44
2022-10-17T18:28:11.498Z,94.14
2022-10-17T18:30:43.165Z,93.32
2022-10-17T18:33:14.656Z,92.69
2022-10-17T18:35:46.604Z,91.87
2022-10-17T18:38:18.145Z,90.95
2022-10-17T18:40:50.774Z,91.00
2022-10-17T18:43:22.522Z,90.92
2022-10-17T18:45:54.331Z,90.38
2022-10-17T18:48:25.835Z,90.19
2022-10-17T18:50:57.634Z,89.69
2022-10-17T18:53:29.119Z,89.95
2022-10-17T18:56:00.940Z,90.45
2022-10-17T18:58:32.445Z,90.25
2022-10-17T19:01:03.966Z,90.85
2022-10-17T19:03:35.753Z,90.70
2022-10-17T19:06:07.897Z,90.50
2022-10-17T19:08:39.490Z,90.59
2022-10-17T19:11:11.468Z,90.67
2022-10-17T19:13:43.109Z,91.81
2022-10-17T19:16:15.130Z,91.91
2022-10-17T19:18:46.698Z,92.07
2022-10-17T19:21:21.835Z,93.16
2022-10-17T19:23:53.943Z,93.23
2022-10-17T19:26:25.890Z,94.76
2022-10-17T19:28:57.475Z,94.63
2022-10-17T19:31:29.443Z,95.89
2022-10-17T19:34:00.959Z,97.25
2022-10-17T19:36:33.712Z,96.01
2022-10-17T19:39:05.359Z,97.20
2022-10-17T19:41:37.283Z,96.37
2022-10-17T19:44:08.901Z,98.97
2022-10-17T19:46:40.675Z,98.35
2022-10-17T19:49:12.562Z,99.01
2022-10-17T19:51:44.081Z,98.96
2022-10-17T19:54:18.697Z,99.77
2022-10-17T19:56:50.198Z,98.91
2022-10-17T19:59:22.038Z,99.89
2022-10-17T20:01:53.699Z,99.77
2022-10-17T20:04:25.558Z,100.00
2022-10-17T20:06:59.869Z,99.87
2022-10-17T20:09:31.878Z,100.00
2022-10-17T20:12:03.410Z,99.68
2022-10-17T20:14:40.084Z,100.00
2022-10-17T20:17:12.572Z,100.00
2022-10-17T20:19:44.428Z,99.79
2022-10-17T20:22:15.935Z,100.00
2022-10-17T20:24:47.785Z,100.00
2022-10-17T20:27:20.137Z,100.00
2022-10-17T20:29:54.061Z,100.00
2022-10-17T20:32:25.561Z,100.00
2022-10-17T20:34:57.393Z,100.00
2022-10-17T20:37:29.070Z,100.00
2022-10-17T20:40:29.580Z,100.00
2022-10-17T20:42:52.619Z,100.00
2022-10-17T20:45:37.512Z,100.00
2022-10-17T20:48:15.987Z,100.00
2022-10-17T20:50:47.813Z,100.00
2022-10-17T20:56:11.929Z,100.00
2022-10-17T20:58:43.737Z,100.00
2022-10-17T21:01:15.264Z,100.00
2022-10-17T21:03:47.378Z,100.00
2022-10-17T21:06:18.889Z,100.00
2022-10-17T21:08:50.703Z,100.00
2022-10-17T21:11:22.217Z,100.00
2022-10-17T21:13:54.157Z,100.00
2022-10-17T21:16:25.679Z,100.00
2022-10-17T21:18:57.623Z,100.00
2022-10-17T21:21:29.501Z,100.00
2022-10-17T21:24:01.519Z,100.00
2022-10-17T21:26:33.086Z,100.00
2022-10-17T21:29:06.206Z,100.00
2022-10-17T21:31:37.696Z,100.00
2022-10-17T21:34:09.550Z,100.00
2022-10-17T21:36:41.027Z,100.00
2022-10-17T21:39:13.018Z,100.00
2022-10-17T21:41:44.596Z,100.00
2022-10-17T21:44:16.424Z,100.00
2022-10-17T21:46:47.954Z,100.00
2022-10-17T21:49:20.000Z,100.00
2022-10-17T21:51:51.535Z,100.00
2022-10-17T21:54:23.840Z,100.00
2022-10-17T21:56:55.357Z,100.00
2022-10-17T21:59:27.280Z,100.00
2022-10-17T22:01:58.923Z,100.00
2022-10-17T22:04:30.974Z,100.00
2022-10-17T22:07:02.501Z,100.00
2022-10-17T22:09:34.453Z,100.00
2022-10-17T22:12:05.973Z,100.00
2022-10-17T22:14:37.974Z,100.00
2022-10-17T22:17:09.482Z,100.00
2022-10-17T22:19:41.327Z,100.00
2022-10-17T22:22:12.842Z,100.00
2022-10-17T22:24:44.723Z,100.00
2022-10-17T22:27:16.254Z,100.00
2022-10-17T22:29:48.016Z,100.00
2022-10-17T22:32:22.358Z,100.00
2022-10-17T22:34:54.698Z,100.00
2022-10-17T22:37:26.173Z,100.00
2022-10-17T22:39:58.043Z,100.00
2022-10-17T22:42:31.634Z,100.00
2022-10-17T22:45:03.749Z,100.00
2022-10-17T22:47:35.365Z,100.00
2022-10-17T22:50:07.285Z,100.00
2022-10-17T22:52:38.803Z,100.00
2022-10-17T22:55:10.711Z,100.00
2022-10-17T22:57:42.265Z,100.00
2022-10-17T23:00:14.167Z,100.00
2022-10-17T23:02:45.783Z,100.00
2022-10-17T23:05:17.721Z,100.00
2022-10-17T23:07:49.298Z,100.00
2022-10-17T23:10:21.393Z,100.00
2022-10-17T23:12:52.889Z,100.00
2022-10-17T23:15:24.391Z,100.00
2022-10-17T23:17:55.893Z,100.00
2022-10-17T23:20:27.779Z,100.00
2022-10-17T23:22:59.272Z,100.00
2022-10-17T23:25:31.106Z,100.00
2022-10-17T23:28:02.614Z,100.00
2022-10-17T23:30:34.430Z,100.00
2022-10-17T23:33:05.937Z,100.00
2022-10-17T23:35:37.752Z,100.00
2022-10-17T23:38:09.581Z,100.00
2022-10-17T23:40:41.052Z,100.00
2022-10-17T23:43:12.896Z,100.00
2022-10-17T23:45:44.453Z,100.00
2022-10-17T23:48:16.336Z,100.00
2022-10-17T23:50:47.837Z,100.00
2022-10-17T23:53:19.657Z,100.00
2022-10-17T23:55:51.174Z,100.00
2022-10-17T23:58:22.729Z,100.00
